createdAt,value
2022-11-16T00:03:28.013Z,9.43
2022-11-16T00:08:30.611Z,9.40
2022-11-16T00:18:34.541Z,10.00
2022-11-16T00:23:38.336Z,9.90
2022-11-16T00:28:39.782Z,10.35
2022-11-16T00:33:41.320Z,10.68
2022-11-16T00:38:42.841Z,11.07
2022-11-16T00:43:44.312Z,11.00
2022-11-16T00:48:45.776Z,11.23
2022-11-16T00:53:47.407Z,11.75
2022-11-16T00:58:49.471Z,10.93
2022-11-16T01:03:50.931Z,11.05
2022-11-16T01:08:52.503Z,10.75
2022-11-16T01:13:54.289Z,11.60
2022-11-16T01:18:55.752Z,12.57
2022-11-16T01:23:57.273Z,11.63
2022-11-16T01:28:59.356Z,12.13
2022-11-16T01:34:00.869Z,11.52
2022-11-16T01:39:02.923Z,12.15
2022-11-16T01:44:33.318Z,11.68
2022-11-16T01:49:38.704Z,11.95
2022-11-16T01:54:41.896Z,12.60
2022-11-16T01:59:43.364Z,13.13
2022-11-16T02:04:44.825Z,12.80
2022-11-16T02:10:14.112Z,13.23
2022-11-16T02:15:43.282Z,14.68
2022-11-16T02:20:59.111Z,12.98
2022-11-16T02:26:13.850Z,14.48
2022-11-16T02:31:17.495Z,14.38
2022-11-16T02:36:20.575Z,14.85
2022-11-16T02:41:22.029Z,15.02
2022-11-16T02:46:27.462Z,15.82
2022-11-16T02:51:28.931Z,15.88
2022-11-16T02:56:30.600Z,15.40
2022-11-16T03:01:35.161Z,16.38
2022-11-16T03:06:39.381Z,17.27
2022-11-16T03:12:02.446Z,17.65
2022-11-16T03:17:04.994Z,16.38
2022-11-16T03:22:11.359Z,15.82
2022-11-16T03:27:22.497Z,16.42
2022-11-16T03:32:28.873Z,15.95
2022-11-16T03:37:30.328Z,15.95
2022-11-16T03:42:31.778Z,17.00
2022-11-16T03:47:33.227Z,17.27
2022-11-16T03:52:34.678Z,17.20
2022-11-16T03:57:36.165Z,17.75
2022-11-16T04:02:37.646Z,16.25
2022-11-16T04:07:57.498Z,16.88
2022-11-16T04:13:17.392Z,15.63
2022-11-16T04:18:37.394Z,15.70
2022-11-16T04:23:57.260Z,14.88
2022-11-16T04:28:58.726Z,18.52
2022-11-16T04:34:18.976Z,16.08
2022-11-16T04:39:20.423Z,16.15
2022-11-16T04:44:27.265Z,15.90
2022-11-16T04:49:31.297Z,16.50
2022-11-16T04:54:32.763Z,15.85
2022-11-16T04:59:34.219Z,17.33
2022-11-16T05:04:36.920Z,16.15
2022-11-16T05:09:42.994Z,17.33
2022-11-16T05:14:44.776Z,18.50
2022-11-16T05:20:04.617Z,17.42
2022-11-16T05:25:06.727Z,16.40
2022-11-16T05:30:08.951Z,16.63
2022-11-16T05:35:10.428Z,17.85
2022-11-16T05:40:12.225Z,18.05
2022-11-16T05:45:18.428Z,17.15
2022-11-16T05:50:22.258Z,17.35
2022-11-16T05:55:23.724Z,18.15
2022-11-16T06:00:25.182Z,17.80
2022-11-16T06:05:26.632Z,16.90
2022-11-16T06:10:28.079Z,16.40
2022-11-16T06:15:29.537Z,18.80
2022-11-16T06:20:30.993Z,16.88
2022-11-16T06:25:32.478Z,17.13
2022-11-16T06:30:34.035Z,16.27
2022-11-16T06:35:35.492Z,17.10
2022-11-16T06:40:37.805Z,16.42
2022-11-16T06:45:39.334Z,16.35
2022-11-16T06:50:40.787Z,16.27
2022-11-16T06:55:42.236Z,15.77
2022-11-16T07:00:43.785Z,16.30
2022-11-16T07:05:45.243Z,16.27
2022-11-16T07:10:46.717Z,17.10
2022-11-16T07:15:48.185Z,16.55
2022-11-16T07:20:49.731Z,15.50
2022-11-16T07:25:51.230Z,17.08
2022-11-16T07:30:52.675Z,16.35
2022-11-16T07:35:54.133Z,15.38
2022-11-16T07:40:59.571Z,15.18
2022-11-16T07:46:45.166Z,16.05
2022-11-16T07:51:26.140Z,15.27
2022-11-16T07:56:27.624Z,15.50
2022-11-16T08:01:29.155Z,15.30
2022-11-16T08:06:31.177Z,16.23
2022-11-16T08:11:32.655Z,16.30
2022-11-16T08:16:34.115Z,14.60
2022-11-16T08:21:35.570Z,14.23
2022-11-16T08:26:37.022Z,14.77
2022-11-16T08:31:38.496Z,14.07
2022-11-16T08:36:39.956Z,13.57
2022-11-16T08:41:42.235Z,14.57
2022-11-16T08:46:43.720Z,14.93
2022-11-16T08:51:45.179Z,13.93
2022-11-16T08:56:46.649Z,13.63
2022-11-16T09:01:49.964Z,14.05
2022-11-16T09:06:52.916Z,15.27
2022-11-16T09:11:55.074Z,15.00
2022-11-16T09:16:56.580Z,14.65
2022-11-16T09:21:58.036Z,14.90
2022-11-16T09:27:01.304Z,14.98
2022-11-16T09:32:02.778Z,13.75
2022-11-16T09:37:04.261Z,13.48
2022-11-16T09:42:19.839Z,13.90
2022-11-16T09:47:23.013Z,14.48
2022-11-16T09:52:28.754Z,12.98
2022-11-16T09:57:32.665Z,14.40
2022-11-16T10:02:43.118Z,16.27
2022-11-16T10:08:05.247Z,16.25
2022-11-16T10:18:44.719Z,14.02
2022-11-16T10:23:53.787Z,12.73
2022-11-16T10:29:01.013Z,14.52
2022-11-16T10:34:02.470Z,15.50
2022-11-16T10:39:09.679Z,15.55
2022-11-16T10:44:15.105Z,13.57
2022-11-16T10:49:35.996Z,14.85
2022-11-16T10:54:41.468Z,14.30
2022-11-16T10:59:50.049Z,14.52
2022-11-16T11:05:08.120Z,13.95
2022-11-16T11:10:28.641Z,15.00
2022-11-16T11:15:30.128Z,13.45
2022-11-16T11:20:31.609Z,13.55
2022-11-16T11:25:41.240Z,13.90
2022-11-16T11:30:54.383Z,14.38
2022-11-16T11:36:02.928Z,13.95
2022-11-16T11:41:07.188Z,13.02
2022-11-16T11:46:12.832Z,13.00
2022-11-16T11:51:21.432Z,11.88
2022-11-16T11:56:23.144Z,13.80
2022-11-16T12:01:40.969Z,11.43
2022-11-16T12:06:58.876Z,10.10
2022-11-16T12:12:14.779Z,9.77
2022-11-16T12:17:18.967Z,9.32
2022-11-16T12:22:29.159Z,8.93
2022-11-16T12:27:42.423Z,8.38
2022-11-16T12:33:11.474Z,9.68
2022-11-16T12:38:47.213Z,9.93
2022-11-16T12:44:20.675Z,8.18
2022-11-16T12:49:49.886Z,8.77
2022-11-16T12:55:24.736Z,7.25
2022-11-16T13:00:19.624Z,8.55
2022-11-16T13:05:42.049Z,9.40
2022-11-16T13:10:45.497Z,12.98
2022-11-16T13:15:47.914Z,12.48
2022-11-16T13:20:54.833Z,10.55
2022-11-16T13:26:10.186Z,11.95
2022-11-16T13:31:18.648Z,11.70
2022-11-16T13:36:40.466Z,12.30
2022-11-16T13:41:51.569Z,11.38
2022-11-16T13:46:56.967Z,11.57
2022-11-16T13:52:11.578Z,11.45
2022-11-16T13:57:26.216Z,10.93
2022-11-16T14:02:36.044Z,10.63
2022-11-16T14:07:42.685Z,11.02
2022-11-16T14:12:43.959Z,9.80
2022-11-16T14:17:59.196Z,9.98
2022-11-16T14:23:00.493Z,8.50
2022-11-16T14:28:39.199Z,10.23
2022-11-16T14:33:40.648Z,9.45
2022-11-16T14:38:42.250Z,10.63
2022-11-16T14:43:45.809Z,8.88
2022-11-16T14:48:47.367Z,9.75
2022-11-16T14:53:50.541Z,7.90
2022-11-16T14:58:58.868Z,8.20
2022-11-16T15:04:02.406Z,7.97
2022-11-16T15:09:04.398Z,8.48
2022-11-16T15:14:07.047Z,8.68
2022-11-16T15:19:11.577Z,9.30
2022-11-16T15:24:37.254Z,9.77
2022-11-16T15:29:38.715Z,10.15
2022-11-16T15:34:40.438Z,10.98
2022-11-16T15:39:41.947Z,10.63
2022-11-16T15:44:43.411Z,10.05
2022-11-16T15:49:46.065Z,9.65
2022-11-16T15:55:05.402Z,10.52
2022-11-16T16:00:20.672Z,10.27
2022-11-16T16:05:38.953Z,9.77
2022-11-16T16:10:40.409Z,10.25
2022-11-16T16:15:41.873Z,8.50
2022-11-16T16:20:47.141Z,8.15
2022-11-16T16:25:50.781Z,6.97
2022-11-16T16:30:52.387Z,7.00
2022-11-16T16:35:53.843Z,8.73
2022-11-16T16:41:00.408Z,8.25
2022-11-16T16:46:02.324Z,8.38
2022-11-16T16:51:03.831Z,6.70
2022-11-16T16:56:05.683Z,7.05
2022-11-16T17:01:07.189Z,7.60
2022-11-16T17:06:08.675Z,8.23
2022-11-16T17:11:12.259Z,7.10
2022-11-16T17:16:13.719Z,4.95
2022-11-16T17:21:15.182Z,6.45
2022-11-16T17:26:16.792Z,4.70
2022-11-16T17:31:18.273Z,4.70
2022-11-16T17:36:19.817Z,6.95
2022-11-16T17:41:24.100Z,7.57
2022-11-16T17:46:26.122Z,8.15
2022-11-16T17:51:29.832Z,8.02
2022-11-16T17:56:31.312Z,11.25
2022-11-16T18:01:33.173Z,10.90
2022-11-16T18:06:35.568Z,10.32
2022-11-16T18:11:39.377Z,9.65
2022-11-16T18:16:43.184Z,8.57
2022-11-16T18:21:44.909Z,11.18
2022-11-16T18:26:46.379Z,8.85
2022-11-16T18:31:47.939Z,8.20
2022-11-16T18:36:50.758Z,7.25
2022-11-16T18:41:55.102Z,8.23
2022-11-16T18:46:56.905Z,7.65
2022-11-16T18:51:58.372Z,7.13
2022-11-16T18:56:59.875Z,6.72
2022-11-16T19:02:01.340Z,5.75
2022-11-16T19:07:02.869Z,6.28
2022-11-16T19:12:04.371Z,5.60
2022-11-16T19:17:05.838Z,6.28
2022-11-16T19:22:07.294Z,6.13
2022-11-16T19:27:08.774Z,7.50
2022-11-16T19:32:10.242Z,6.75
2022-11-16T19:37:11.913Z,5.82
2022-11-16T19:42:13.370Z,5.38
2022-11-16T19:47:14.825Z,5.07
2022-11-16T19:52:16.390Z,5.25
2022-11-16T19:57:20.470Z,4.57
2022-11-16T20:02:21.940Z,5.15
2022-11-16T20:07:23.526Z,5.47
2022-11-16T20:12:25.035Z,4.70
2022-11-16T20:17:26.520Z,4.57
2022-11-16T20:22:28.015Z,4.50
2022-11-16T20:27:29.499Z,4.28
2022-11-16T20:32:32.015Z,4.03
2022-11-16T20:37:33.482Z,5.13
2022-11-16T20:42:34.964Z,4.57
2022-11-16T20:47:36.424Z,4.50
2022-11-16T20:52:42.384Z,3.92
2022-11-16T20:57:45.131Z,3.80
2022-11-16T21:02:46.611Z,3.97
2022-11-16T21:07:48.162Z,4.80
2022-11-16T21:13:07.989Z,4.05
2022-11-16T21:18:09.468Z,4.20
2022-11-16T21:23:10.936Z,4.85
2022-11-16T21:28:12.396Z,4.75
2022-11-16T21:33:13.855Z,4.35
2022-11-16T21:38:15.310Z,6.30
2022-11-16T21:43:16.909Z,4.65
2022-11-16T21:48:18.371Z,5.03
2022-11-16T21:53:19.874Z,5.28
2022-11-16T21:58:21.368Z,5.88
2022-11-16T22:03:25.111Z,4.85
2022-11-16T22:08:26.568Z,6.00
2022-11-16T22:13:28.034Z,5.57
2022-11-16T22:18:32.792Z,5.55
2022-11-16T22:23:34.392Z,5.88
2022-11-16T22:28:36.303Z,6.40
2022-11-16T22:33:38.168Z,5.93
2022-11-16T22:38:39.785Z,6.10
2022-11-16T22:43:41.242Z,6.35
2022-11-16T22:48:43.623Z,5.80
2022-11-16T22:53:45.143Z,5.45
2022-11-16T22:58:46.634Z,5.03
2022-11-16T23:03:48.307Z,5.70
2022-11-16T23:08:49.837Z,4.88
2022-11-16T23:14:10.642Z,5.47
2022-11-16T23:19:32.524Z,4.72
2022-11-16T23:24:52.219Z,5.45
2022-11-16T23:29:53.683Z,5.55
2022-11-16T23:34:55.150Z,5.60
2022-11-16T23:39:56.623Z,5.18
2022-11-16T23:44:58.087Z,4.97
2022-11-16T23:49:59.559Z,6.45
2022-11-16T23:55:01.021Z,6.43
